Time;durP1;ratioP1;P1;durP2;ratioP2;P2;SDS_P1;SDS_P2;PMS_P1;PMS_P2;Temp;Humidity;BMP_temperature;BMP_pressure;BME280_temperature;BME280_humidity;BME280_pressure;Samples;Min_cycle;Max_cycle;Signal;HPM_P1;HPM_P2
2021/04/18 00:00:55;;;;;;;;;12.75;11.00;;;;;27.76;59.79;98999.16;4992528;28;8915;-72
2021/04/18 00:03:24;;;;;;;;;14.50;12.50;;;;;27.75;59.66;98994.91;4992472;28;8867;-72
2021/04/18 00:05:52;;;;;;;;;12.00;12.00;;;;;27.72;59.82;98992.94;4992581;28;8958;-73
2021/04/18 00:08:20;;;;;;;;;12.25;12.25;;;;;27.74;58.79;99001.47;4992524;28;8844;-72
2021/04/18 00:10:49;;;;;;;;;14.00;14.00;;;;;27.68;58.80;98994.06;4992763;28;8938;-72
2021/04/18 00:13:18;;;;;;;;;11.00;11.00;;;;;27.89;58.90;99027.53;4991834;28;8824;-72
2021/04/18 00:15:46;;;;;;;;;11.50;11.50;;;;;27.91;59.13;99022.53;4989151;28;8824;-72
2021/04/18 00:18:15;;;;;;;;;12.25;12.25;;;;;27.80;59.14;99008.09;4974737;28;8836;-73
2021/04/18 00:20:43;;;;;;;;;11.75;11.75;;;;;27.94;59.00;99026.41;4991990;28;8852;-72
2021/04/18 00:23:11;;;;;;;;;8.75;8.75;;;;;28.05;58.56;99034.63;4990942;28;8824;-72
2021/04/18 00:25:40;;;;;;;;;10.50;10.50;;;;;28.03;59.02;99039.66;4990878;28;8836;-72
2021/04/18 00:28:08;;;;;;;;;11.25;10.00;;;;;28.17;58.88;99050.63;4990150;28;8934;-72
2021/04/18 00:30:36;;;;;;;;;10.50;10.50;;;;;28.13;58.46;99042.44;4991168;28;8828;-71
2021/04/18 00:33:04;;;;;;;;;11.25;10.00;;;;;28.22;58.28;99048.34;4990735;28;8832;-72
2021/04/18 00:35:33;;;;;;;;;10.75;10.75;;;;;28.04;58.22;99016.81;4991382;28;8887;-72
2021/04/18 00:38:01;;;;;;;;;10.50;10.50;;;;;28.24;57.87;99039.84;4990724;28;8820;-72
2021/04/18 00:40:30;;;;;;;;;12.75;12.75;;;;;28.22;58.17;99031.31;4973462;28;8829;-71
2021/04/18 00:43:01;;;;;;;;;4.25;4.00;;;;;28.35;57.97;99056.19;4990210;28;8836;-72
2021/04/18 00:45:29;;;;;;;;;3.75;3.75;;;;;28.25;58.47;99030.56;4989552;28;8844;-71
2021/04/18 00:48:01;;;;;;;;;8.00;8.00;;;;;28.29;57.68;99031.34;4989944;28;8836;-72
2021/04/18 00:50:35;;;;;;;;;10.25;10.25;;;;;28.50;57.49;99053.19;4973503;28;8852;-71
2021/04/18 00:53:07;;;;;;;;;8.50;8.50;;;;;28.55;57.41;99039.28;4990375;28;8860;-71
2021/04/18 00:55:39;;;;;;;;;10.00;10.00;;;;;28.49;56.94;99010.16;4990276;28;8847;-71
2021/04/18 00:58:09;;;;;;;;;9.50;9.50;;;;;28.64;57.16;99030.75;4972375;28;8856;-71
2021/04/18 01:00:38;;;;;;;;;9.50;9.50;;;;;28.65;57.01;99029.59;4988208;28;8856;-71
2021/04/18 01:03:07;;;;;;;;;9.00;9.00;;;;;28.75;57.43;99050.59;4989261;28;8880;-73
2021/04/18 01:05:36;;;;;;;;;13.00;12.75;;;;;28.70;56.88;99039.31;4989926;28;8856;-72
2021/04/18 01:08:09;;;;;;;;;18.00;14.50;;;;;28.90;56.16;99056.91;4986963;28;8982;-72
2021/04/18 01:10:37;;;;;;;;;15.00;15.00;;;;;28.97;57.15;99046.06;4987121;28;8941;-71
2021/04/18 01:13:05;;;;;;;;;11.00;11.00;;;;;29.03;56.77;99041.81;4989310;28;8856;-72
2021/04/18 01:15:34;;;;;;;;;11.00;11.00;;;;;29.02;56.73;99045.69;4986365;28;8950;-72
2021/04/18 01:18:02;;;;;;;;;10.75;10.75;;;;;29.02;56.06;99056.56;4988519;28;8998;-72
2021/04/18 01:20:30;;;;;;;;;9.75;9.00;;;;;29.03;55.91;99066.25;4987490;28;8914;-71
2021/04/18 01:22:58;;;;;;;;;8.75;8.75;;;;;29.11;56.04;99058.91;4973539;28;8832;-71
2021/04/18 01:25:27;;;;;;;;;7.25;7.25;;;;;29.17;55.75;99071.75;4990529;28;8867;-71
2021/04/18 01:27:57;;;;;;;;;9.25;8.75;;;;;29.12;55.58;99044.97;4990888;28;8836;-72
2021/04/18 01:30:30;;;;;;;;;8.25;8.25;;;;;29.25;54.25;99055.47;4990117;28;8840;-71
2021/04/18 01:33:03;;;;;;;;;9.75;9.75;;;;;29.43;55.25;99076.13;4988734;28;8848;-72
2021/04/18 01:35:32;;;;;;;;;9.25;9.25;;;;;29.50;54.92;99084.31;4988536;28;8832;-72
2021/04/18 01:38:00;;;;;;;;;7.50;7.50;;;;;29.57;55.87;99080.81;4990964;28;8836;-72
2021/04/18 01:40:29;;;;;;;;;7.75;7.75;;;;;29.61;55.38;99078.13;4991259;28;8864;-72
2021/04/18 01:42:57;;;;;;;;;6.25;6.25;;;;;29.48;54.78;99058.69;4991177;28;8863;-72
2021/04/18 01:45:26;;;;;;;;;10.75;10.75;;;;;29.66;55.19;99075.78;4991606;28;8815;-72
2021/04/18 01:47:54;;;;;;;;;8.25;8.25;;;;;29.66;54.99;99072.31;4989253;28;9622;-72
2021/04/18 01:50:24;;;;;;;;;10.25;8.50;;;;;29.70;56.16;99073.88;4991178;28;8828;-72
2021/04/18 01:52:52;;;;;;;;;8.00;6.00;;;;;29.73;55.69;99085.91;4989045;28;9549;-72
2021/04/18 01:55:20;;;;;;;;;7.75;7.75;;;;;29.66;55.13;99085.91;4991280;28;8871;-72
2021/04/18 01:57:48;;;;;;;;;8.50;7.00;;;;;29.45;53.92;99070.31;4991167;28;8836;-72
2021/04/18 02:00:17;;;;;;;;;9.50;9.50;;;;;29.58;54.59;99087.03;4991668;28;8887;-72
2021/04/18 02:02:45;;;;;;;;;8.25;8.25;;;;;29.59;53.90;99094.03;4991898;28;8828;-72
2021/04/18 02:05:14;;;;;;;;;8.75;7.75;;;;;29.55;53.84;99088.59;4991951;28;8840;-72
2021/04/18 02:07:42;;;;;;;;;7.00;7.00;;;;;29.61;53.84;99086.28;4992035;28;8846;-72
2021/04/18 02:10:12;;;;;;;;;7.00;7.00;;;;;29.58;53.77;99090.53;4991938;28;8836;-72
2021/04/18 02:12:42;;;;;;;;;9.75;9.00;;;;;29.56;54.07;99083.94;4991861;28;8868;-72
2021/04/18 02:15:11;;;;;;;;;6.25;6.25;;;;;29.58;53.50;99087.03;4991765;28;8950;-72
2021/04/18 02:17:39;;;;;;;;;8.00;8.00;;;;;29.57;53.25;99090.94;4991828;28;8898;-72
2021/04/18 02:20:09;;;;;;;;;9.00;8.50;;;;;29.53;53.28;99093.63;4993122;28;8832;-72
2021/04/18 02:22:37;;;;;;;;;7.25;7.25;;;;;29.45;53.59;99087.41;4995290;28;8851;-72
2021/04/18 02:25:06;;;;;;;;;7.75;7.75;;;;;29.43;53.40;99106.03;4995278;28;8860;-72
2021/04/18 02:27:34;;;;;;;;;3.75;3.75;;;;;29.34;52.53;99102.88;4995216;28;8954;-72
2021/04/18 02:30:03;;;;;;;;;7.25;7.25;;;;;29.31;53.47;99100.13;4995261;28;8938;-72
2021/04/18 02:32:31;;;;;;;;;7.50;7.50;;;;;29.35;52.66;99109.84;4995101;28;9695;-73
2021/04/18 02:35:01;;;;;;;;;8.75;8.75;;;;;29.34;53.51;99099.38;4995013;28;8863;-72
2021/04/18 02:37:29;;;;;;;;;6.25;6.25;;;;;29.43;53.51;99121.56;4994550;28;8894;-72
2021/04/18 02:39:57;;;;;;;;;9.00;9.00;;;;;29.41;53.19;99112.97;4994442;28;8816;-72
2021/04/18 02:42:25;;;;;;;;;9.50;9.50;;;;;29.44;53.51;99125.84;4994168;28;9585;-73
2021/04/18 02:44:53;;;;;;;;;12.00;12.00;;;;;29.38;53.77;99111.03;4994341;28;8844;-72
2021/04/18 02:47:21;;;;;;;;;9.50;9.50;;;;;29.47;54.03;99127.78;4991816;28;8863;-72
2021/04/18 02:49:49;;;;;;;;;13.00;13.00;;;;;29.40;54.22;99120.34;4994327;28;8860;-73
2021/04/18 02:52:17;;;;;;;;;8.75;8.75;;;;;29.47;53.95;99134.00;4993623;28;8840;-72
2021/04/18 02:54:46;;;;;;;;;11.50;10.25;;;;;29.45;53.62;99122.72;4993914;28;9703;-72
2021/04/18 02:57:14;;;;;;;;;8.25;8.25;;;;;29.57;53.50;99131.69;4993723;28;8848;-72
2021/04/18 02:59:42;;;;;;;;;7.50;7.50;;;;;29.63;53.63;99135.59;4991035;28;8832;-72
2021/04/18 03:02:10;;;;;;;;;10.25;10.25;;;;;29.67;53.67;99136.38;4993612;28;8835;-73
2021/04/18 03:04:38;;;;;;;;;11.25;11.00;;;;;29.70;54.16;99136.41;4993645;28;9679;-73
2021/04/18 03:07:06;;;;;;;;;9.75;9.75;;;;;29.75;53.46;99137.97;4993859;28;8836;-73
2021/04/18 03:09:34;;;;;;;;;10.00;10.00;;;;;29.78;53.16;99139.91;4993736;28;8938;-73
2021/04/18 03:12:03;;;;;;;;;9.75;9.75;;;;;29.74;53.87;99134.47;4993481;28;8999;-75
2021/04/18 03:14:31;;;;;;;;;12.50;12.50;;;;;29.80;53.14;99132.94;4993219;28;9662;-73
2021/04/18 03:16:59;;;;;;;;;13.75;13.75;;;;;29.84;53.30;99124.78;4993827;28;8855;-73
2021/04/18 03:19:27;;;;;;;;;12.75;12.75;;;;;29.77;54.13;99125.53;4993852;28;8863;-73
2021/04/18 03:21:55;;;;;;;;;13.25;13.25;;;;;29.91;54.16;99134.84;4993372;28;8933;-73
2021/04/18 03:24:23;;;;;;;;;11.50;11.50;;;;;29.88;54.26;99128.28;4975715;28;8868;-73
2021/04/18 03:26:52;;;;;;;;;11.75;11.25;;;;;29.90;53.62;99136.81;4992825;28;8858;-73
2021/04/18 03:29:20;;;;;;;;;8.50;8.50;;;;;29.91;53.23;99132.13;4993162;28;8836;-73
2021/04/18 03:31:48;;;;;;;;;11.50;11.50;;;;;29.99;54.31;99155.47;4993270;28;8858;-73
2021/04/18 03:34:16;;;;;;;;;9.50;9.50;;;;;30.00;53.80;99146.13;4993990;28;8855;-73
2021/04/18 03:36:44;;;;;;;;;11.75;11.75;;;;;29.54;54.01;99079.66;4993555;28;9621;-73
2021/04/18 03:39:13;;;;;;;;;12.50;12.25;;;;;29.98;53.67;99132.91;4991251;28;8835;-72
2021/04/18 03:41:41;;;;;;;;;12.75;12.75;;;;;30.05;53.74;99140.34;4972996;28;8828;-72
2021/04/18 03:44:10;;;;;;;;;14.00;14.00;;;;;30.07;54.20;99135.28;4967737;28;8840;-72
2021/04/18 03:46:38;;;;;;;;;15.25;15.25;;;;;30.08;54.32;99132.19;4991180;28;8864;-72
2021/04/18 03:49:07;;;;;;;;;12.00;12.00;;;;;30.09;53.90;99125.59;4991089;28;8854;-72
2021/04/18 03:51:47;;;;;;;;;16.50;14.75;;;;;30.10;54.55;99121.69;4991473;28;8832;-72
2021/04/18 03:54:15;;;;;;;;;17.00;17.00;;;;;29.94;54.88;99094.06;4991629;28;8839;-71
2021/04/18 03:56:44;;;;;;;;;13.25;13.25;;;;;30.01;55.11;99096.81;4990935;28;8883;-72
2021/04/18 03:59:12;;;;;;;;;13.00;13.00;;;;;30.06;55.59;99099.16;4991373;28;8869;-72
2021/04/18 04:01:40;;;;;;;;;15.50;15.50;;;;;30.03;54.92;99091.00;4973168;28;8951;-72
2021/04/18 04:04:09;;;;;;;;;16.25;16.25;;;;;30.12;55.24;99097.59;4988386;28;8877;-72
2021/04/18 04:06:38;;;;;;;;;17.50;17.50;;;;;30.16;55.41;99103.81;4991786;28;8966;-72
2021/04/18 04:09:10;;;;;;;;;18.00;18.00;;;;;30.14;55.60;99087.09;4989394;28;8840;-72
2021/04/18 04:11:41;;;;;;;;;16.75;14.50;;;;;30.26;54.93;99079.72;4974461;28;9616;-72
2021/04/18 04:14:10;;;;;;;;;15.25;15.25;;;;;30.07;54.89;99050.97;4989181;28;8855;-72
2021/04/18 04:16:37;;;;;;;;;20.25;18.50;;;;;30.33;54.88;99074.25;4990472;28;8931;-72
2021/04/18 04:19:06;;;;;;;;;16.25;16.25;;;;;30.29;54.98;99070.78;4987688;28;8847;-72
2021/04/18 04:21:34;;;;;;;;;16.25;16.25;;;;;30.33;55.70;99077.75;4990959;28;8868;-73
2021/04/18 04:24:03;;;;;;;;;14.75;14.75;;;;;30.30;55.81;99072.31;4990873;28;9582;-71
2021/04/18 04:26:31;;;;;;;;;15.25;15.00;;;;;30.22;55.67;99060.66;4991736;28;8824;-72
2021/04/18 04:28:59;;;;;;;;;14.00;14.00;;;;;30.50;55.83;99098.75;4990786;28;8828;-72
2021/04/18 04:31:27;;;;;;;;;16.75;16.75;;;;;30.58;55.39;99093.31;4989893;28;8848;-73
2021/04/18 04:33:56;;;;;;;;;13.75;13.75;;;;;30.68;55.96;99101.47;4988394;28;8998;-72
2021/04/18 04:36:24;;;;;;;;;13.00;13.00;;;;;30.67;55.24;99091.75;4987151;28;8891;-72
2021/04/18 04:38:52;;;;;;;;;14.75;13.75;;;;;30.64;55.77;99087.06;4987068;28;8986;-73
2021/04/18 04:41:21;;;;;;;;;16.00;16.00;;;;;30.55;55.46;99080.47;4989301;28;8825;-72
2021/04/18 04:43:49;;;;;;;;;14.50;14.50;;;;;30.72;55.68;99074.22;4988063;28;8874;-73
2021/04/18 04:46:17;;;;;;;;;17.00;17.00;;;;;30.79;54.98;99077.69;4990193;28;9029;-73
2021/04/18 04:48:47;;;;;;;;;16.00;14.75;;;;;30.87;54.79;99074.97;4990748;28;8879;-73
2021/04/18 04:51:16;;;;;;;;;16.50;15.75;;;;;30.92;54.40;99077.28;4990343;28;9601;-72
2021/04/18 04:53:46;;;;;;;;;15.25;15.25;;;;;30.85;54.47;99066.41;4989739;28;8860;-72
2021/04/18 04:56:15;;;;;;;;;14.25;14.25;;;;;30.93;52.85;99100.63;4988339;28;8862;-72
2021/04/18 04:58:43;;;;;;;;;9.75;9.75;;;;;30.76;53.84;99102.22;4969321;28;8987;-72
2021/04/18 05:01:11;;;;;;;;;5.75;5.75;;;;;30.47;53.48;99085.13;4987643;28;8852;-72
2021/04/18 05:03:39;;;;;;;;;3.00;3.00;;;;;30.35;53.59;99083.59;4987878;28;9608;-72
2021/04/18 05:06:09;;;;;;;;;2.50;2.50;;;;;30.02;53.94;99054.84;4988143;28;8878;-73
2021/04/18 05:08:37;;;;;;;;;2.25;2.25;;;;;29.76;54.42;99049.78;4986954;28;8864;-73
2021/04/18 05:11:05;;;;;;;;;2.75;2.75;;;;;29.30;54.28;99006.19;4988922;28;8836;-73
2021/04/18 05:13:34;;;;;;;;;2.75;2.75;;;;;28.92;55.00;99004.91;4989176;28;8835;-73
2021/04/18 05:16:04;;;;;;;;;1.00;1.00;;;;;28.68;55.83;99006.34;4991559;28;8836;-73
2021/04/18 05:18:32;;;;;;;;;1.50;1.50;;;;;28.41;55.70;99005.84;4991062;28;8844;-73
2021/04/18 05:21:02;;;;;;;;;3.50;3.50;;;;;28.12;56.11;99004.84;4991549;28;9557;-73
2021/04/18 05:23:30;;;;;;;;;2.25;2.25;;;;;27.73;56.34;98983.66;4991668;28;8974;-72
2021/04/18 05:25:59;;;;;;;;;3.00;3.00;;;;;27.50;57.98;98956.72;4971097;28;8958;-72
2021/04/18 05:28:27;;;;;;;;;2.75;2.75;;;;;27.44;57.46;98941.16;4968765;28;8864;-73
2021/04/18 05:30:57;;;;;;;;;0.75;0.75;;;;;27.39;57.54;98928.75;4986904;28;9412;-73
2021/04/18 05:33:25;;;;;;;;;2.25;2.25;;;;;27.28;57.36;98903.53;4987446;28;8840;-73
2021/04/18 05:35:54;;;;;;;;;3.25;2.00;;;;;27.25;57.79;98906.97;4988490;28;8923;-73
2021/04/18 05:38:22;;;;;;;;;0.50;0.50;;;;;27.20;57.70;98901.91;4988040;28;8925;-73
2021/04/18 05:40:50;;;;;;;;;2.00;2.00;;;;;27.06;57.82;98882.81;4989065;28;8847;-74
2021/04/18 05:43:19;;;;;;;;;3.25;3.25;;;;;27.13;58.44;98901.84;4989121;28;8844;-73
2021/04/18 05:45:47;;;;;;;;;2.00;2.00;;;;;27.03;57.73;98889.75;4989002;28;8915;-73
2021/04/18 05:48:15;;;;;;;;;1.75;1.75;;;;;27.03;59.19;98895.19;4989460;28;8852;-73
2021/04/18 05:50:46;;;;;;;;;2.75;2.75;;;;;26.99;58.72;98893.59;4970958;28;8859;-73
2021/04/18 05:53:18;;;;;;;;;6.50;6.50;;;;;26.93;58.53;98893.88;4989390;28;8832;-73
2021/04/18 05:55:47;;;;;;;;;8.75;8.75;;;;;26.89;58.42;98903.91;4992300;28;8871;-74
2021/04/18 05:58:17;;;;;;;;;4.75;4.75;;;;;26.82;59.75;98905.75;4992778;28;9582;-73
2021/04/18 06:00:45;;;;;;;;;2.75;1.75;;;;;26.76;60.85;98899.91;4992344;28;8941;-72
2021/04/18 06:03:16;;;;;;;;;12.25;11.75;;;;;26.90;59.89;98912.81;4991648;28;8890;-72
2021/04/18 06:05:44;;;;;;;;;4.25;4.25;;;;;26.89;60.41;98914.72;4975864;28;8852;-71
2021/04/18 06:08:13;;;;;;;;;2.50;2.50;;;;;26.68;60.02;98881.25;4991758;28;8824;-71
2021/04/18 06:10:41;;;;;;;;;4.00;4.00;;;;;26.90;60.13;98918.22;4972392;28;10009;-71
2021/04/18 06:13:09;;;;;;;;;1.00;1.00;;;;;26.89;60.98;98913.94;4967300;28;8824;-72
2021/04/18 06:15:38;;;;;;;;;4.00;4.00;;;;;26.90;59.22;98915.50;4993123;28;8887;-73
2021/04/18 06:18:06;;;;;;;;;4.50;4.50;;;;;26.79;60.79;98882.91;4994222;28;8836;-72
2021/04/18 06:20:34;;;;;;;;;4.75;4.75;;;;;26.89;60.01;98893.06;4992618;28;8856;-73
2021/04/18 06:23:02;;;;;;;;;3.50;3.50;;;;;26.77;61.51;98871.69;4993229;28;9441;-73
2021/04/18 06:25:31;;;;;;;;;4.00;4.00;;;;;26.83;60.71;98877.53;4993902;28;8836;-73
2021/04/18 06:27:59;;;;;;;;;4.00;4.00;;;;;26.92;62.47;98867.97;4993658;28;9590;-72
2021/04/18 06:30:27;;;;;;;;;3.75;3.75;;;;;26.95;60.17;98861.81;4994115;28;8847;-72
2021/04/18 06:32:56;;;;;;;;;3.50;3.50;;;;;26.96;61.05;98840.94;4985889;28;8832;-72
2021/04/18 06:35:25;;;;;;;;;7.25;7.25;;;;;26.77;62.58;98809.44;4993196;28;8836;-71
2021/04/18 06:37:53;;;;;;;;;5.00;5.00;;;;;26.96;63.07;98827.41;4992336;28;8840;-72
2021/04/18 06:40:21;;;;;;;;;4.50;4.50;;;;;26.94;61.91;98810.75;4991582;28;8925;-72
2021/04/18 06:42:55;;;;;;;;;6.00;6.00;;;;;26.95;63.75;98793.34;4990199;28;8852;-72
2021/04/18 06:45:23;;;;;;;;;7.50;7.50;;;;;26.93;65.80;98785.59;4990084;28;8828;-71
2021/04/18 06:47:52;;;;;;;;;5.00;5.00;;;;;26.98;63.18;98775.63;4988659;28;8849;-71
2021/04/18 06:50:21;;;;;;;;;8.25;8.25;;;;;26.98;65.96;98765.56;4974027;28;8918;-72
2021/04/18 06:52:49;;;;;;;;;9.25;9.25;;;;;26.97;68.28;98755.88;4990140;28;8828;-72
2021/04/18 06:55:18;;;;;;;;;7.75;7.75;;;;;27.03;67.47;98748.19;4988625;28;8832;-72
2021/04/18 06:57:46;;;;;;;;;9.00;9.00;;;;;27.08;62.05;98740.50;4988973;28;8916;-72
2021/04/18 07:00:15;;;;;;;;;11.25;9.50;;;;;27.03;66.26;98724.59;4992195;28;8894;-73
2021/04/18 07:02:44;;;;;;;;;10.75;9.75;;;;;27.15;62.89;98729.72;4982424;28;8931;-72
2021/04/18 07:05:15;;;;;;;;;12.00;12.00;;;;;27.13;64.56;98737.44;4982917;28;8943;-71
2021/04/18 07:07:46;;;;;;;;;10.25;10.25;;;;;27.28;65.91;98758.06;4987979;28;8903;-71
2021/04/18 07:10:28;;;;;;;;;11.50;11.50;;;;;27.38;66.95;98761.94;4992545;28;8855;-72
2021/04/18 07:13:10;;;;;;;;;12.00;12.00;;;;;27.36;65.77;98748.00;4990216;28;8836;-72
2021/04/18 07:15:42;;;;;;;;;11.75;11.75;;;;;27.59;62.93;98759.38;4985127;28;9622;-72
2021/04/18 07:18:14;;;;;;;;;10.75;10.75;;;;;27.71;65.68;98765.66;4967868;28;9584;-72
2021/04/18 07:21:01;;;;;;;;;9.25;9.25;;;;;27.82;64.72;98745.56;4972358;28;8915;-72
2021/04/18 07:23:33;;;;;;;;;11.75;11.75;;;;;27.98;67.07;98744.44;4989337;28;8899;-71
2021/04/18 07:26:26;;;;;;;;;12.50;12.50;;;;;28.14;67.45;98739.47;4992470;28;8808;-71
2021/04/18 07:29:11;;;;;;;;;8.00;8.00;;;;;28.26;64.90;98736.44;4991341;28;8858;-72
2021/04/18 07:31:40;;;;;;;;;7.00;7.00;;;;;28.31;64.11;98711.63;4990791;28;8938;-72
2021/04/18 07:34:11;;;;;;;;;9.00;9.00;;;;;28.45;65.07;98706.22;4991401;28;8832;-71
2021/04/18 07:36:45;;;;;;;;;10.00;10.00;;;;;28.61;65.51;98713.97;4991129;28;8856;-71
2021/04/18 07:39:15;;;;;;;;;9.75;9.75;;;;;28.68;63.54;98703.09;4987469;28;8848;-71
2021/04/18 07:41:48;;;;;;;;;10.75;10.75;;;;;28.65;64.74;98679.44;4985407;28;8954;-71
2021/04/18 07:44:18;;;;;;;;;11.75;11.75;;;;;28.60;62.88;98673.66;4991845;28;8910;-72
2021/04/18 07:46:49;;;;;;;;;8.25;8.25;;;;;28.81;62.41;98706.19;4989469;28;8856;-71
2021/04/18 07:49:19;;;;;;;;;11.00;10.50;;;;;28.86;63.30;98706.63;4992011;28;8859;-71
2021/04/18 07:51:50;;;;;;;;;9.50;9.50;;;;;28.88;64.77;98693.44;4990398;28;8882;-71
2021/04/18 07:54:19;;;;;;;;;5.00;5.00;;;;;28.91;63.94;98689.16;4987278;28;8847;-71
2021/04/18 07:56:49;;;;;;;;;8.00;8.00;;;;;28.96;64.40;98682.56;4988565;28;8846;-71
2021/04/18 07:59:21;;;;;;;;;7.50;7.50;;;;;28.94;63.45;98671.31;4988606;28;8840;-71
2021/04/18 08:01:49;;;;;;;;;12.50;12.50;;;;;28.98;64.59;98681.00;4983203;28;8800;-72
2021/04/18 08:04:19;;;;;;;;;9.50;9.50;;;;;29.10;63.10;98699.59;4985448;28;8902;-71
2021/04/18 08:06:47;;;;;;;;;7.25;7.25;;;;;29.11;63.03;98690.28;4983568;28;8823;-72
2021/04/18 08:09:20;;;;;;;;;12.25;12.25;;;;;29.14;62.64;98686.78;4986887;28;8832;-72
2021/04/18 08:12:21;;;;;;;;;7.50;7.50;;;;;29.28;63.34;98690.63;4979953;28;8915;-72
2021/04/18 08:15:13;;;;;;;;;10.50;10.50;;;;;29.32;63.07;98675.09;4982129;28;8835;-72
2021/04/18 08:18:05;;;;;;;;;7.25;7.25;;;;;29.32;61.33;98670.44;4976465;28;8953;-71
2021/04/18 08:20:41;;;;;;;;;8.75;8.75;;;;;29.42;60.82;98685.19;4980252;28;8865;-71
2021/04/18 08:23:17;;;;;;;;;10.75;10.75;;;;;29.32;60.58;98667.72;4981004;28;8877;-72
2021/04/18 08:26:09;;;;;;;;;7.25;7.25;;;;;29.42;60.64;98683.25;4978382;28;8811;-72
2021/04/18 08:29:09;;;;;;;;;9.75;9.75;;;;;29.43;60.34;98692.16;4971124;28;9599;-72
2021/04/18 08:31:54;;;;;;;;;10.25;10.25;;;;;29.44;59.73;98691.00;4969252;28;9660;-72
2021/04/18 08:34:26;;;;;;;;;8.25;8.25;;;;;29.42;59.65;98682.47;4980879;28;9594;-72
2021/04/18 08:36:56;;;;;;;;;11.00;11.00;;;;;29.40;59.62;98674.69;4963846;28;8874;-72
2021/04/18 08:39:27;;;;;;;;;12.00;11.50;;;;;29.34;59.59;98670.03;4988448;28;8831;-72
2021/04/18 08:41:59;;;;;;;;;8.75;8.75;;;;;29.34;59.63;98681.69;4987034;28;8848;-72
2021/04/18 08:44:47;;;;;;;;;9.50;9.50;;;;;29.24;59.45;98685.22;4987513;28;9034;-72
2021/04/18 08:47:19;;;;;;;;;6.50;6.50;;;;;29.08;58.27;98655.75;4985057;28;8930;-72
2021/04/18 08:49:51;;;;;;;;;7.50;7.50;;;;;29.17;57.87;98679.78;4968139;28;8852;-73
2021/04/18 08:52:29;;;;;;;;;8.75;7.75;;;;;29.21;58.34;98684.06;4983059;28;9090;-73
2021/04/18 08:55:01;;;;;;;;;8.75;8.75;;;;;29.17;58.30;98675.13;4987418;28;8836;-71
2021/04/18 08:57:34;;;;;;;;;6.25;6.25;;;;;29.22;58.88;98684.84;4983244;28;8900;-72
2021/04/18 09:00:07;;;;;;;;;7.25;7.00;;;;;29.27;60.59;98678.22;4979963;28;8832;-71
2021/04/18 09:02:36;;;;;;;;;7.00;7.00;;;;;29.29;59.29;98692.97;4986036;28;8848;-71
2021/04/18 09:05:09;;;;;;;;;8.25;7.25;;;;;29.29;58.77;98689.47;4986315;28;8869;-70
2021/04/18 09:07:44;;;;;;;;;9.00;8.25;;;;;29.19;59.31;98672.03;4976165;28;8961;-71
2021/04/18 09:10:15;;;;;;;;;7.75;7.75;;;;;29.29;59.00;98682.09;4977616;28;9004;-71
2021/04/18 09:12:46;;;;;;;;;7.25;7.25;;;;;29.25;58.59;98675.13;4990152;28;8869;-71
2021/04/18 09:15:15;;;;;;;;;8.50;8.50;;;;;29.23;60.49;98675.50;4990051;28;8868;-71
2021/04/18 09:17:43;;;;;;;;;3.00;3.00;;;;;29.18;60.80;98676.69;4990726;28;8890;-71
2021/04/18 09:20:17;;;;;;;;;9.75;9.75;;;;;29.23;59.93;98683.66;4987023;28;8859;-72
2021/04/18 09:22:45;;;;;;;;;6.75;6.75;;;;;29.26;60.04;98682.88;4972573;28;8864;-71
2021/04/18 09:25:19;;;;;;;;;14.50;14.50;;;;;29.22;59.45;98674.75;4990006;28;8867;-71
2021/04/18 09:27:51;;;;;;;;;11.75;11.75;;;;;29.30;60.61;98691.03;4990149;28;8840;-71
2021/04/18 09:30:21;;;;;;;;;8.25;8.25;;;;;29.27;60.09;98678.22;4989947;28;8898;-71
2021/04/18 09:32:59;;;;;;;;;9.50;9.50;;;;;29.22;59.27;98672.03;4992557;28;8906;-71
2021/04/18 09:35:28;;;;;;;;;8.50;8.50;;;;;29.28;59.20;98679.78;4991774;28;8853;-71
2021/04/18 09:38:00;;;;;;;;;8.00;8.00;;;;;29.22;59.52;98668.53;4990642;28;8848;-71
2021/04/18 09:40:37;;;;;;;;;9.75;9.75;;;;;29.19;60.02;98659.22;4988104;28;8953;-69
2021/04/18 09:43:08;;;;;;;;;9.00;9.00;;;;;29.14;59.82;98650.69;4985119;28;8850;-70
2021/04/18 09:45:36;;;;;;;;;7.50;7.50;;;;;29.12;59.80;98648.38;4986359;28;8844;-71
2021/04/18 09:48:20;;;;;;;;;9.00;9.00;;;;;29.09;59.23;98638.31;4988921;28;8927;-70
2021/04/18 09:51:02;;;;;;;;;7.75;7.75;;;;;29.07;58.77;98643.34;4988343;28;8870;-71
2021/04/18 09:53:31;;;;;;;;;10.00;8.75;;;;;29.02;59.30;98641.03;4987045;28;8971;-71
2021/04/18 09:56:08;;;;;;;;;8.00;7.50;;;;;29.03;60.16;98637.16;4988214;28;8954;-71
2021/04/18 09:58:41;;;;;;;;;9.00;9.00;;;;;29.02;60.54;98643.75;4989445;28;8958;-70
2021/04/18 10:01:29;;;;;;;;;8.00;8.00;;;;;28.99;59.98;98641.03;4990337;28;8871;-71
2021/04/18 10:03:58;;;;;;;;;11.25;10.75;;;;;28.95;60.85;98648.41;4975124;28;8836;-72
2021/04/18 10:06:44;;;;;;;;;10.25;10.25;;;;;28.93;61.10;98659.69;4990272;28;8828;-72
2021/04/18 10:09:12;;;;;;;;;8.75;8.75;;;;;28.93;60.85;98669.75;4991558;28;8844;-72
2021/04/18 10:11:41;;;;;;;;;9.25;9.25;;;;;28.92;59.85;98674.41;4974201;28;8914;-71
2021/04/18 10:14:19;;;;;;;;;8.00;8.00;;;;;28.89;60.00;98681.41;4990896;28;8830;-72
2021/04/18 10:16:47;;;;;;;;;8.25;8.25;;;;;28.84;60.61;98684.50;4979942;28;8836;-71
2021/04/18 10:19:19;;;;;;;;;11.00;11.00;;;;;28.78;59.89;98686.03;4987423;28;8856;-72
2021/04/18 10:22:11;;;;;;;;;10.00;10.00;;;;;28.75;60.84;98692.25;4988694;28;8828;-72
2021/04/18 10:24:51;;;;;;;;;9.75;9.75;;;;;28.71;61.58;98685.25;4985662;28;8865;-71
2021/04/18 10:27:25;;;;;;;;;10.00;10.00;;;;;28.68;61.03;98686.03;4986200;28;8867;-71
2021/04/18 10:29:57;;;;;;;;;11.00;11.00;;;;;28.57;61.48;98669.78;4987687;28;8846;-72
2021/04/18 10:32:25;;;;;;;;;9.00;9.00;;;;;28.64;59.92;98679.84;4986657;28;8856;-70
2021/04/18 10:34:53;;;;;;;;;8.00;8.00;;;;;28.62;59.88;98674.81;4985177;28;8914;-72
2021/04/18 10:37:25;;;;;;;;;11.00;11.00;;;;;28.63;60.45;98675.56;4990201;28;8991;-71
2021/04/18 10:39:53;;;;;;;;;7.75;7.75;;;;;28.62;60.57;98674.81;4984473;28;8916;-71
2021/04/18 10:42:22;;;;;;;;;9.00;7.00;;;;;28.48;60.71;98666.69;4983327;28;8854;-71
2021/04/18 10:44:50;;;;;;;;;7.00;7.00;;;;;28.42;60.88;98670.94;4991649;28;8949;-72
2021/04/18 10:47:18;;;;;;;;;10.00;10.00;;;;;28.55;61.10;98691.88;4988682;28;8849;-72
2021/04/18 10:49:49;;;;;;;;;8.75;8.75;;;;;28.52;61.15;98695.38;4974777;28;8887;-72
2021/04/18 10:52:17;;;;;;;;;11.00;11.00;;;;;28.42;61.30;98676.38;4989806;28;9623;-71
2021/04/18 10:54:45;;;;;;;;;8.25;8.25;;;;;28.40;61.03;98676.78;4991463;28;8864;-70
2021/04/18 10:57:14;;;;;;;;;11.50;11.50;;;;;28.47;60.55;98690.34;4992025;28;8926;-72
2021/04/18 10:59:42;;;;;;;;;9.00;9.00;;;;;28.47;61.34;98686.84;4993255;28;9679;-72
2021/04/18 11:02:10;;;;;;;;;11.00;11.00;;;;;28.44;61.35;98693.81;4994051;28;8938;-71
2021/04/18 11:04:38;;;;;;;;;9.25;9.25;;;;;28.34;61.72;98697.31;4993499;28;8872;-72
2021/04/18 11:07:08;;;;;;;;;14.25;14.25;;;;;28.25;61.65;98686.06;4993651;28;8925;-72
2021/04/18 11:09:37;;;;;;;;;12.50;12.50;;;;;28.17;61.19;98674.38;4992206;28;8852;-72
2021/04/18 11:12:19;;;;;;;;;9.25;9.25;;;;;28.36;61.74;98699.63;4993227;28;8867;-72
2021/04/18 11:14:48;;;;;;;;;10.00;9.00;;;;;28.14;60.98;98677.09;4990326;28;8851;-72
2021/04/18 11:17:16;;;;;;;;;10.50;10.50;;;;;28.28;61.52;98698.84;4991196;28;8836;-72
2021/04/18 11:19:45;;;;;;;;;9.75;9.75;;;;;28.27;60.98;98696.50;4970382;28;8874;-72
2021/04/18 11:22:13;;;;;;;;;9.00;9.00;;;;;28.15;60.37;98682.13;4990102;28;9522;-72
2021/04/18 11:24:41;;;;;;;;;10.00;10.00;;;;;28.04;61.03;98662.34;4991033;28;8832;-71
2021/04/18 11:27:10;;;;;;;;;11.25;11.25;;;;;28.25;61.70;98705.81;4990200;28;8852;-72
2021/04/18 11:29:44;;;;;;;;;10.50;10.50;;;;;28.23;61.70;98719.00;4984771;28;8859;-71
2021/04/18 11:32:12;;;;;;;;;9.75;9.75;;;;;28.17;62.52;98720.50;4989715;28;8937;-72
2021/04/18 11:34:40;;;;;;;;;8.25;7.75;;;;;28.19;62.68;98733.66;4991526;28;8824;-72
2021/04/18 11:37:09;;;;;;;;;11.75;10.50;;;;;28.24;62.71;98746.88;4966699;28;8835;-72
2021/04/18 11:39:38;;;;;;;;;10.50;10.50;;;;;28.22;62.20;98758.13;4991360;28;8832;-71
2021/04/18 11:42:06;;;;;;;;;12.75;12.75;;;;;28.23;62.38;98746.13;4974487;28;8871;-72
2021/04/18 11:44:35;;;;;;;;;12.25;12.25;;;;;28.15;63.09;98735.59;4989473;28;8860;-72
2021/04/18 11:47:03;;;;;;;;;12.25;12.25;;;;;28.22;62.07;98744.56;4993036;28;8882;-72
2021/04/18 11:49:31;;;;;;;;;11.00;11.00;;;;;28.07;62.60;98723.19;4982013;28;8913;-72